Terminal Aerodrome Forecast
Issued by NWS Charleston, SC

Home | Current Version | Previous Version | Text Only | Print | Product List | Glossary On
Versions: 1 2 3 4 5 6 7 8 9 10 11 12 13 14 15 16 17 18 19 20 21
000
FTUS42 KCHS 312300
TAFSAV
TAF
KSAV 312331Z 0100/0124 28003KT P6SM BKN080
     FM010600 27008G13KT P6SM BKN050
     FM010900 28016G24KT P6SM BKN035
     FM011400 30022G32KT P6SM BKN045=

USA.gov is the U.S. government's official web portal to all federal, state and local government web resources and services.